Avondale, KY

6:11 PM CST on January 29, 2015 (GMT -0600)
Ricks Place Paducah, KY | Change Station
CLOSE
Current Station
Personal Weather Station
Location: Paducah, KY
Elevation: 351 ft
Nearby Weather Stations

Elev 351 ft 37.07 °N, 88.62 °W | Updated 5 minutes ago

Overcast
Overcast
43.2 °F
Feels Like 43 °F
N
2.7
Wind Variable Wind from NNW

Today
High -- | Low -- °F
--% Chance of Precip.
Yesterday
High -- | Low -- °F
Precip. -- in
6:59 AM 5:16 PM
Waxing Gibbous, 78% visible
Pressure 30.27 in
Visibility 10.0 miles
Clouds Mostly Cloudy 3800 ft
Overcast 4500 ft
Windchill 43 °F
Dew Point 34 °F
Humidity 71%
Rainfall 0.00 in
Snow Depth Not available.
UV 0 out of 12
Pollen 1.30 out of 12
Air Quality Not available.
Flu Activity Not available.
METAR KPAH 292353Z 32010KT 10SM BKN038 OVC045 06/M01 A3027 RMK AO2 SLP250 T00561011 10083 20056 53025

More Conditions Fewer Conditions

Pressure 30.27 in
Visibility 10.0 miles
Clouds Mostly Cloudy 3800 ft
Overcast 4500 ft
Windchill 43 °F
Dew Point 34 °F
Humidity 71%
Rainfall 0.00 in
Snow Depth Not available.
UV 0 out of 12
Pollen 1.30 out of 12
Air Quality Not available.
Flu Activity Not available.
METAR KPAH 292353Z 32010KT 10SM BKN038 OVC045 06/M01 A3027 RMK AO2 SLP250 T00561011 10083 20056 53025

More Conditions Fewer Conditions

10-Day Weather Forecast

Almanac

Astronomy

Jan. 29, 2015 Rise Set
Actual Time
Civil Twilight
Nautical Twilight
Astronomical Twilight
Moon
Length of Visible Light
Length of Day
Tomorrow will be .
, % of the Moon is Illuminated

Today's Extremes

State Highs State Lows

Community

WunderPhotos

Upload Photos

1,791,645 photos uploaded!

WunderBlogs® & News

Nearby

Air Quality

  Air Quality AQ Index Pollutant
Not available.

Snow Depth

Station Depth Elevation

Earthquake Activity

City Distance Mag. Time & Date
Minimum magnitude displayed is 2.5.

Coastal Water Temperatures

Place Temperature

Nearby Weather Stations